Terminal Aerodrome Forecast
Issued by NWS

Home | Current Version | Previous Version | Text Only | Print | Product List | Glossary On
Versions: 1 2 3 4 5 6 7 8 9 10 11 12 13 14 15 16 17 18 19 20 21 22 23 24 25 26 27 28 29 30 31 32 33 34 35 36 37 38 39 40
375
FTUS45 KSLC 240326 AAA
TAFLGU
TAF AMD
KLGU 240326Z 2403/2424 36006KT P6SM FEW030 SCT050 OVC100
     FM240600 VRB05KT 6SM -RA SCT020 OVC030
     FM241200 35006KT 6SM -RA SCT009 OVC020
     FM242300 05004KT P6SM -SHRA SCT020 BKN035=

USA.gov is the U.S. government's official web portal to all federal, state and local government web resources and services.